SBOSBO PMI / LEPA
Speedbird OnlineSpeedbird Online PMI / LEPA

Palma De Mallorca Airport
08:00 7.5°C

Location Palma de Mallorca, Spain
Latitude: 39.551700592
Longitude: 2.73881006241
Web Airport Website | Wikipedia
Altitude 8 Meter / 27 Feet
Distance 1,345 KM / 836 Miles
from London.
Time Zone UTC +1 hours (Europe/Madrid)
Codes IATA: PMI
ICAO: LEPA
Currency £1 equals EUR 1.14
Runways
RunwayLength (m)Surface
06L3270Asphalt
06R3000Asphalt
24L3000Asphalt
24R3270Asphalt
Radio
TypeDescriptionFrequency
APPAPP118.95
ATISATIS119.25
CLDCLNC DEL121.6
GNDGND121.7
OPSOPS130.25
TWRTWR118.3
Live ATC
METAR LEPA 290630Z 02010KT 9999 FEW035 SCT055 08/03 Q1021 NOSIG
TAF TAF LEPA 290500Z 2906/3006 02004KT 9999 SCT020 TX11/2912Z TN03/2906Z PROB40 TEMPO 2906/2912 4000 SHRA FEW025TCU BECMG 2908/2910 04012KT TEMPO 2910/2916 04015G25KT BECMG 2916/2918 01006KT
Weather As Of 29 Jan 2023 08:00
Description Scattered clouds
Wind 19 km/h from North (20°)
Cloud Cover 40%
Precipitation Rain: none, Snow: none
Sunrise 07:59
Sunset 18:04
Lounges Sala Mediterraneo, Departures
Sala Valldemosa , Departures
Sala Llevant, Departures - No Schengen flights
Sala Formentor , Terminal D
Rotations During the last 90 days there were
34 flights from LGW
32 flights from LCY
36 flights to LGW
31 flights to LCY



Support Speedbird Online

© 2017-2023 Speedbird Online